ADDS METAR Data INFO
IDs: Format: Raw Decoded Include TAF

Data at: 1016 UTC 12 Dec 2017

KBTR 120953Z AUTO 28006KT 10SM CLR 07/05 A3010 RMK AO2 SLP191 T00720050
KBTR 120853Z AUTO 26005KT 10SM CLR 07/05 A3009 RMK AO2 SLP188 T00720050 56006
KBTR 120753Z AUTO 26005KT 10SM CLR 08/06 A3009 RMK AO2 SLP188 T00830056
KBTR 120653Z AUTO 24004KT 10SM CLR 08/05 A3009 RMK AO2 SLP188 T00830050
KBTR 120553Z 25005KT 10SM CLR 09/05 A3011 RMK AO2 SLP194 T00890050 10150 20089 402110017 58013
KBTR 120453Z 24007KT 10SM CLR 10/06 A3012 RMK AO2 SLP199 T01000056
KBTR 120353Z 24007KT 10SM CLR 11/06 A3013 RMK AO2 SLP202 T01060056
KBTR 120253Z 24006KT 10SM CLR 11/07 A3014 RMK AO2 SLP206 T01110067 52007
KBTR 120153Z 23009KT 10SM CLR 13/07 A3014 RMK AO2 SLP205 T01280072
KBTR 120053Z 22011KT 10SM CLR 14/06 A3013 RMK AO2 SLP201 T01440061
KBTR 112353Z 22009KT 10SM CLR 14/03 A3012 RMK AO2 SLP200 T01440033 10211 20144 56008
KBTR 112253Z 23007KT 10SM CLR 17/03 A3013 RMK AO2 SLP202 T01720028
KBTR 112153Z 23009KT 10SM CLR 20/01 A3013 RMK AO2 SLP202 T02000011
KBTR 112053Z 24010KT 10SM CLR 21/01 A3015 RMK AO2 SLP207 T02060006 56029
KBTR 111953Z 24008KT 10SM CLR 21/02 A3016 RMK AO2 SLP213 T02060022
KBTR 111853Z 24007KT 10SM CLR 19/03 A3020 RMK AO2 SLP224 T01890028
KBTR 111753Z 27009KT 10SM CLR 18/03 A3023 RMK AO2 SLP236 T01830028 10183 20017 58022
KBTR 111653Z 27008KT 10SM CLR 17/03 A3027 RMK AO2 SLP250 T01670033
KBTR 111553Z 25007KT 10SM CLR 13/04 A3029 RMK AO2 SLP258 T01330039
KBTR 111453Z 24005KT 10SM CLR 11/04 A3030 RMK AO2 SLP259 T01060044 58003
KBTR 111353Z 00000KT 10SM CLR 04/03 A3030 RMK AO2 SLP261 T00440028
KBTR 111253Z 00000KT 6SM BR CLR 02/01 A3030 RMK AO2 SLP261 T00170011 $
KBTR 111153Z 00000KT 10SM CLR 02/01 A3030 RMK AO2 SLP262 T00220011 10067 20017 $
KBTR 111053Z AUTO 00000KT 10SM CLR 02/01 A3030 RMK AO2 SLP260 T00170006 $
KBTR 110953Z AUTO 00000KT 10SM CLR 02/01 A3031 RMK AO2 SLP264 T00170006 $
KBTR 110853Z AUTO 00000KT 10SM CLR 02/01 A3031 RMK AO2 SLP261 T00220011 56010 $
KBTR 110753Z AUTO 00000KT 10SM CLR 03/01 A3031 RMK AO2 SLP263 T00330011 $
KBTR 110653Z AUTO 28003KT 10SM CLR 06/01 A3032 RMK AO2 SLP267 T00610011 $
KBTR 110553Z AUTO 27004KT 10SM CLR 06/01 A3034 RMK AO2 SLP271 T00610006 10083 20028 401501011 58005 $
KBTR 110453Z 00000KT 10SM CLR 03/01 A3034 RMK AO2 SLP274 T00280006 $
KBTR 110353Z 00000KT 10SM CLR 03/01 A3035 RMK AO2 SLP277 T00280011 $
KBTR 110253Z 00000KT 10SM CLR 04/02 A3035 RMK AO2 SLP277 T00390017 51007 $
KBTR 110153Z 00000KT 10SM CLR 04/02 A3035 RMK AO2 SLP277 T00440017 $
KBTR 110053Z 00000KT 10SM CLR 06/03 A3033 RMK AO2 SLP272 T00560028 $
KBTR 102353Z 00000KT 10SM CLR 08/01 A3033 RMK AO2 SLP270 T00830011 10150 20083 58000 $
KBTR 102253Z 29004KT 10SM CLR 12/M02 A3033 RMK AO2 SLP271 T01221022 $